createdAt,value
2022-11-05T00:09:56.787Z,949.48
2022-11-05T00:24:58.611Z,949
2022-11-05T00:40:00.510Z,948.62
2022-11-05T00:55:02.381Z,948.28
2022-11-05T01:10:04.232Z,947.99
2022-11-05T01:25:06.087Z,947.74
2022-11-05T01:40:07.916Z,947.24
2022-11-05T01:55:09.727Z,946.72
2022-11-05T02:10:11.645Z,946.44
2022-11-05T02:25:13.476Z,946.01
2022-11-05T02:40:15.314Z,945.63
2022-11-05T02:55:17.196Z,945.28
2022-11-05T03:10:19.062Z,944.73
2022-11-05T03:25:20.948Z,944.04
2022-11-05T03:40:22.791Z,943.36
2022-11-05T03:55:24.675Z,942.79
2022-11-05T04:10:26.606Z,942.11
2022-11-05T04:25:28.452Z,941.7
2022-11-05T04:40:30.278Z,941.01
2022-11-05T04:55:32.102Z,940.63
2022-11-05T05:10:34.139Z,940.17
2022-11-05T05:25:36.006Z,939.78
2022-11-05T05:40:37.970Z,939.59
2022-11-05T05:55:40.010Z,939.21
2022-11-05T06:10:42.013Z,938.78
2022-11-05T06:25:44.002Z,938.48
2022-11-05T06:40:45.950Z,938.05
2022-11-05T06:55:47.889Z,937.44
2022-11-05T07:10:49.830Z,937.13
2022-11-05T07:25:51.757Z,936.91
2022-11-05T07:40:53.664Z,936.69
2022-11-05T07:55:55.575Z,936.55
2022-11-05T08:10:57.581Z,936.54
2022-11-05T08:25:59.540Z,936.84
2022-11-05T08:41:01.477Z,936.35
2022-11-05T08:56:03.421Z,936.28
2022-11-05T09:11:05.332Z,936.46
2022-11-05T09:26:07.296Z,936.96
2022-11-05T09:41:09.227Z,936.72
2022-11-05T09:56:11.175Z,936.53
2022-11-05T10:11:13.074Z,936.97
2022-11-05T10:26:14.989Z,937.2
2022-11-05T10:41:16.892Z,937.58
2022-11-05T10:56:18.813Z,937.92
2022-11-05T11:11:20.783Z,938.84
2022-11-05T11:26:22.664Z,940.18
2022-11-05T11:41:24.595Z,940.04
2022-11-05T11:56:26.535Z,940.92
2022-11-05T12:11:28.429Z,941.71
2022-11-05T12:26:30.355Z,942.77
2022-11-05T12:41:32.362Z,943.11
2022-11-05T12:56:34.271Z,943.87
2022-11-05T13:11:36.248Z,944.32
2022-11-05T13:26:38.152Z,944.81
2022-11-05T13:41:40.031Z,945.21
2022-11-05T13:56:42.077Z,945.91
2022-11-05T14:11:44.031Z,946.31
2022-11-05T14:26:45.933Z,946.89
2022-11-05T14:41:47.924Z,947.52
2022-11-05T14:56:55.920Z,948.13
2022-11-05T15:11:58.494Z,948.53
2022-11-05T15:27:00.461Z,948.95
2022-11-05T15:42:02.409Z,949.28
2022-11-05T15:57:04.375Z,949.8
2022-11-05T16:12:06.378Z,950.32
2022-11-05T16:27:08.290Z,950.58
2022-11-05T16:42:10.208Z,951.17
2022-11-05T16:57:12.167Z,951.17
2022-11-05T17:12:14.092Z,951.46
2022-11-05T17:27:16.215Z,951.7
2022-11-05T17:42:18.236Z,951.73
2022-11-05T17:57:20.186Z,951.86
2022-11-05T18:12:22.129Z,952.17
2022-11-05T18:27:24.155Z,952.5
2022-11-05T18:42:26.109Z,952.62
2022-11-05T18:57:28.126Z,952.73
2022-11-05T19:12:30.082Z,952.66
2022-11-05T19:27:31.955Z,952.72
2022-11-05T19:42:33.892Z,952.66
2022-11-05T19:57:35.801Z,952.59
2022-11-05T20:12:37.745Z,952.76
2022-11-05T20:27:39.753Z,952.89
2022-11-05T20:42:41.679Z,952.85
2022-11-05T20:57:43.840Z,952.88
2022-11-05T21:12:45.729Z,952.86
2022-11-05T21:27:47.709Z,952.96
2022-11-05T21:42:49.613Z,952.97
2022-11-05T21:57:51.588Z,952.98
2022-11-05T22:12:53.535Z,952.92
2022-11-05T22:27:55.620Z,953.08
2022-11-05T22:42:57.578Z,953.16
2022-11-05T22:57:59.490Z,953.33
2022-11-05T23:13:01.388Z,953.28
2022-11-05T23:28:03.392Z,953.3
2022-11-05T23:43:05.284Z,953.42
2022-11-05T23:58:07.269Z,953.58
